sensor_id;sensor_type;location;lat;lon;timestamp;P1;durP1;ratioP1;P2;durP2;ratioP2
21099;SDS011;10708;50.824;4.408;2023-01-24T00:00:20;61.37;;;37.27;;
21099;SDS011;10708;50.824;4.408;2023-01-24T00:05:23;61.33;;;37.20;;
21099;SDS011;10708;50.824;4.408;2023-01-24T00:10:26;64.47;;;39.17;;
21099;SDS011;10708;50.824;4.408;2023-01-24T00:15:29;63.87;;;39.90;;
21099;SDS011;10708;50.824;4.408;2023-01-24T00:20:32;60.88;;;37.40;;
21099;SDS011;10708;50.824;4.408;2023-01-24T00:25:36;63.40;;;37.57;;
21099;SDS011;10708;50.824;4.408;2023-01-24T00:30:38;59.20;;;37.65;;
21099;SDS011;10708;50.824;4.408;2023-01-24T00:35:41;61.17;;;38.40;;
21099;SDS011;10708;50.824;4.408;2023-01-24T00:40:45;63.90;;;39.63;;
21099;SDS011;10708;50.824;4.408;2023-01-24T00:45:47;60.35;;;37.28;;
21099;SDS011;10708;50.824;4.408;2023-01-24T00:50:50;61.47;;;37.43;;
21099;SDS011;10708;50.824;4.408;2023-01-24T00:55:54;61.27;;;37.97;;
21099;SDS011;10708;50.824;4.408;2023-01-24T01:00:57;63.15;;;38.15;;
21099;SDS011;10708;50.824;4.408;2023-01-24T01:06:04;60.85;;;35.55;;
21099;SDS011;10708;50.824;4.408;2023-01-24T01:11:09;60.58;;;36.17;;
21099;SDS011;10708;50.824;4.408;2023-01-24T01:16:12;59.00;;;35.72;;
21099;SDS011;10708;50.824;4.408;2023-01-24T01:21:18;59.93;;;36.83;;
21099;SDS011;10708;50.824;4.408;2023-01-24T01:26:23;58.55;;;36.20;;
21099;SDS011;10708;50.824;4.408;2023-01-24T01:31:25;56.45;;;34.38;;
21099;SDS011;10708;50.824;4.408;2023-01-24T01:36:27;58.42;;;35.53;;
21099;SDS011;10708;50.824;4.408;2023-01-24T01:41:31;60.00;;;35.87;;
21099;SDS011;10708;50.824;4.408;2023-01-24T01:46:35;61.83;;;37.45;;
21099;SDS011;10708;50.824;4.408;2023-01-24T01:51:44;59.87;;;35.67;;
21099;SDS011;10708;50.824;4.408;2023-01-24T01:56:50;53.75;;;34.03;;
21099;SDS011;10708;50.824;4.408;2023-01-24T02:01:57;53.30;;;33.05;;
21099;SDS011;10708;50.824;4.408;2023-01-24T02:07:04;51.28;;;31.25;;
21099;SDS011;10708;50.824;4.408;2023-01-24T02:12:13;48.50;;;30.40;;
21099;SDS011;10708;50.824;4.408;2023-01-24T02:17:20;45.90;;;29.90;;
21099;SDS011;10708;50.824;4.408;2023-01-24T02:22:24;45.87;;;29.07;;
21099;SDS011;10708;50.824;4.408;2023-01-24T02:27:34;46.20;;;30.48;;
21099;SDS011;10708;50.824;4.408;2023-01-24T02:32:36;45.47;;;29.70;;
21099;SDS011;10708;50.824;4.408;2023-01-24T02:37:39;44.97;;;29.50;;
21099;SDS011;10708;50.824;4.408;2023-01-24T02:42:43;46.92;;;30.90;;
21099;SDS011;10708;50.824;4.408;2023-01-24T02:47:46;45.90;;;31.05;;
21099;SDS011;10708;50.824;4.408;2023-01-24T02:52:50;46.20;;;30.77;;
21099;SDS011;10708;50.824;4.408;2023-01-24T02:58:12;46.00;;;29.40;;
21099;SDS011;10708;50.824;4.408;2023-01-24T03:03:14;44.88;;;29.02;;
21099;SDS011;10708;50.824;4.408;2023-01-24T03:08:17;44.63;;;29.63;;
21099;SDS011;10708;50.824;4.408;2023-01-24T03:13:21;46.85;;;28.90;;
21099;SDS011;10708;50.824;4.408;2023-01-24T03:18:41;50.03;;;30.07;;
21099;SDS011;10708;50.824;4.408;2023-01-24T03:24:01;45.33;;;28.92;;
21099;SDS011;10708;50.824;4.408;2023-01-24T03:29:23;42.97;;;27.52;;
21099;SDS011;10708;50.824;4.408;2023-01-24T03:34:42;43.20;;;27.83;;
21099;SDS011;10708;50.824;4.408;2023-01-24T03:39:49;42.20;;;28.00;;
21099;SDS011;10708;50.824;4.408;2023-01-24T03:45:02;44.38;;;28.17;;
21099;SDS011;10708;50.824;4.408;2023-01-24T03:50:10;41.20;;;26.83;;
21099;SDS011;10708;50.824;4.408;2023-01-24T03:55:29;40.63;;;27.43;;
21099;SDS011;10708;50.824;4.408;2023-01-24T04:00:33;41.40;;;27.45;;
21099;SDS011;10708;50.824;4.408;2023-01-24T04:05:37;44.47;;;27.85;;
21099;SDS011;10708;50.824;4.408;2023-01-24T04:10:39;44.23;;;29.67;;
21099;SDS011;10708;50.824;4.408;2023-01-24T04:15:44;44.35;;;29.73;;
21099;SDS011;10708;50.824;4.408;2023-01-24T04:20:46;44.57;;;31.33;;
21099;SDS011;10708;50.824;4.408;2023-01-24T04:25:49;43.88;;;30.13;;
21099;SDS011;10708;50.824;4.408;2023-01-24T04:30:59;42.53;;;29.83;;
21099;SDS011;10708;50.824;4.408;2023-01-24T04:36:03;38.72;;;28.48;;
21099;SDS011;10708;50.824;4.408;2023-01-24T04:41:06;42.58;;;29.73;;
21099;SDS011;10708;50.824;4.408;2023-01-24T04:46:14;42.13;;;30.20;;
21099;SDS011;10708;50.824;4.408;2023-01-24T04:51:16;41.70;;;28.67;;
21099;SDS011;10708;50.824;4.408;2023-01-24T04:56:18;44.92;;;30.58;;
21099;SDS011;10708;50.824;4.408;2023-01-24T05:01:22;41.60;;;28.88;;
21099;SDS011;10708;50.824;4.408;2023-01-24T05:06:24;41.77;;;28.63;;
21099;SDS011;10708;50.824;4.408;2023-01-24T05:11:27;42.80;;;28.63;;
21099;SDS011;10708;50.824;4.408;2023-01-24T05:21:36;42.90;;;28.67;;
21099;SDS011;10708;50.824;4.408;2023-01-24T05:26:39;46.38;;;29.42;;
21099;SDS011;10708;50.824;4.408;2023-01-24T05:31:43;44.00;;;30.00;;
21099;SDS011;10708;50.824;4.408;2023-01-24T05:36:45;45.83;;;31.90;;
21099;SDS011;10708;50.824;4.408;2023-01-24T05:41:47;46.17;;;32.60;;
21099;SDS011;10708;50.824;4.408;2023-01-24T05:46:51;50.63;;;36.15;;
21099;SDS011;10708;50.824;4.408;2023-01-24T05:51:53;51.95;;;34.78;;
21099;SDS011;10708;50.824;4.408;2023-01-24T05:56:55;51.83;;;34.65;;
21099;SDS011;10708;50.824;4.408;2023-01-24T06:01:59;52.25;;;34.95;;
21099;SDS011;10708;50.824;4.408;2023-01-24T06:07:02;50.92;;;34.08;;
21099;SDS011;10708;50.824;4.408;2023-01-24T06:12:04;50.38;;;33.78;;
21099;SDS011;10708;50.824;4.408;2023-01-24T06:17:08;52.25;;;34.80;;
21099;SDS011;10708;50.824;4.408;2023-01-24T06:22:14;51.33;;;33.92;;
21099;SDS011;10708;50.824;4.408;2023-01-24T06:27:23;54.07;;;34.40;;
21099;SDS011;10708;50.824;4.408;2023-01-24T06:32:29;52.53;;;33.65;;
21099;SDS011;10708;50.824;4.408;2023-01-24T06:37:44;53.20;;;34.50;;
21099;SDS011;10708;50.824;4.408;2023-01-24T06:42:48;59.50;;;37.90;;
21099;SDS011;10708;50.824;4.408;2023-01-24T06:47:53;59.40;;;38.95;;
21099;SDS011;10708;50.824;4.408;2023-01-24T06:52:57;56.58;;;38.05;;
21099;SDS011;10708;50.824;4.408;2023-01-24T06:58:00;62.25;;;39.53;;
21099;SDS011;10708;50.824;4.408;2023-01-24T07:03:06;62.38;;;39.83;;
21099;SDS011;10708;50.824;4.408;2023-01-24T07:08:09;62.73;;;41.00;;
21099;SDS011;10708;50.824;4.408;2023-01-24T07:13:12;62.28;;;39.60;;
21099;SDS011;10708;50.824;4.408;2023-01-24T07:18:16;57.97;;;37.20;;
21099;SDS011;10708;50.824;4.408;2023-01-24T07:23:20;61.10;;;36.97;;
21099;SDS011;10708;50.824;4.408;2023-01-24T07:28:24;65.57;;;39.35;;
21099;SDS011;10708;50.824;4.408;2023-01-24T07:33:29;65.60;;;39.97;;
21099;SDS011;10708;50.824;4.408;2023-01-24T07:38:31;61.92;;;38.33;;
21099;SDS011;10708;50.824;4.408;2023-01-24T07:43:33;64.00;;;38.53;;
21099;SDS011;10708;50.824;4.408;2023-01-24T07:48:37;65.22;;;40.45;;
21099;SDS011;10708;50.824;4.408;2023-01-24T07:53:39;66.15;;;40.55;;
21099;SDS011;10708;50.824;4.408;2023-01-24T07:58:42;67.00;;;41.78;;
21099;SDS011;10708;50.824;4.408;2023-01-24T08:03:46;66.77;;;41.83;;
21099;SDS011;10708;50.824;4.408;2023-01-24T08:08:48;68.20;;;42.72;;
21099;SDS011;10708;50.824;4.408;2023-01-24T08:13:51;69.37;;;44.07;;
21099;SDS011;10708;50.824;4.408;2023-01-24T08:18:56;65.18;;;39.90;;
21099;SDS011;10708;50.824;4.408;2023-01-24T08:23:58;61.67;;;39.97;;
21099;SDS011;10708;50.824;4.408;2023-01-24T08:29:01;63.40;;;39.03;;
21099;SDS011;10708;50.824;4.408;2023-01-24T08:34:05;60.85;;;38.83;;
21099;SDS011;10708;50.824;4.408;2023-01-24T08:39:07;61.57;;;38.77;;
21099;SDS011;10708;50.824;4.408;2023-01-24T08:44:09;60.20;;;38.78;;
21099;SDS011;10708;50.824;4.408;2023-01-24T08:49:13;61.72;;;38.83;;
21099;SDS011;10708;50.824;4.408;2023-01-24T08:54:18;65.65;;;41.53;;
21099;SDS011;10708;50.824;4.408;2023-01-24T08:59:20;64.05;;;42.53;;
21099;SDS011;10708;50.824;4.408;2023-01-24T09:04:24;63.58;;;42.63;;
21099;SDS011;10708;50.824;4.408;2023-01-24T09:09:27;62.30;;;41.80;;
21099;SDS011;10708;50.824;4.408;2023-01-24T09:14:31;63.40;;;40.77;;
21099;SDS011;10708;50.824;4.408;2023-01-24T09:19:35;56.30;;;37.28;;
21099;SDS011;10708;50.824;4.408;2023-01-24T09:24:37;55.53;;;34.28;;
21099;SDS011;10708;50.824;4.408;2023-01-24T09:29:40;55.17;;;35.80;;
21099;SDS011;10708;50.824;4.408;2023-01-24T09:34:44;59.00;;;39.00;;
21099;SDS011;10708;50.824;4.408;2023-01-24T09:39:48;63.43;;;41.87;;
21099;SDS011;10708;50.824;4.408;2023-01-24T09:44:52;58.08;;;38.08;;
21099;SDS011;10708;50.824;4.408;2023-01-24T09:50:03;60.65;;;39.95;;
21099;SDS011;10708;50.824;4.408;2023-01-24T09:55:12;60.37;;;39.03;;
21099;SDS011;10708;50.824;4.408;2023-01-24T10:00:17;57.13;;;36.60;;
21099;SDS011;10708;50.824;4.408;2023-01-24T10:05:31;54.80;;;36.95;;
21099;SDS011;10708;50.824;4.408;2023-01-24T10:10:45;52.15;;;32.15;;
21099;SDS011;10708;50.824;4.408;2023-01-24T10:15:57;43.40;;;30.57;;
21099;SDS011;10708;50.824;4.408;2023-01-24T10:21:16;42.83;;;28.48;;
21099;SDS011;10708;50.824;4.408;2023-01-24T10:26:46;36.97;;;27.17;;
21099;SDS011;10708;50.824;4.408;2023-01-24T10:31:54;33.75;;;25.73;;
21099;SDS011;10708;50.824;4.408;2023-01-24T10:37:04;34.42;;;26.40;;
21099;SDS011;10708;50.824;4.408;2023-01-24T10:42:16;35.00;;;25.27;;
21099;SDS011;10708;50.824;4.408;2023-01-24T10:47:42;38.03;;;26.30;;
21099;SDS011;10708;50.824;4.408;2023-01-24T10:52:49;37.60;;;25.77;;
21099;SDS011;10708;50.824;4.408;2023-01-24T10:57:52;35.55;;;25.35;;
21099;SDS011;10708;50.824;4.408;2023-01-24T11:02:55;33.22;;;26.30;;
21099;SDS011;10708;50.824;4.408;2023-01-24T11:08:01;32.33;;;26.10;;
21099;SDS011;10708;50.824;4.408;2023-01-24T11:13:26;34.70;;;24.37;;
21099;SDS011;10708;50.824;4.408;2023-01-24T11:18:34;32.92;;;23.17;;
21099;SDS011;10708;50.824;4.408;2023-01-24T11:23:39;32.33;;;23.05;;
21099;SDS011;10708;50.824;4.408;2023-01-24T11:28:42;30.88;;;22.35;;
21099;SDS011;10708;50.824;4.408;2023-01-24T11:33:51;33.60;;;24.33;;
21099;SDS011;10708;50.824;4.408;2023-01-24T11:39:19;31.27;;;25.03;;
21099;SDS011;10708;50.824;4.408;2023-01-24T11:55:36;30.90;;;23.42;;
21099;SDS011;10708;50.824;4.408;2023-01-24T12:00:48;31.88;;;23.30;;
21099;SDS011;10708;50.824;4.408;2023-01-24T12:06:00;33.30;;;24.00;;
21099;SDS011;10708;50.824;4.408;2023-01-24T12:11:17;33.40;;;24.30;;
21099;SDS011;10708;50.824;4.408;2023-01-24T12:16:28;35.60;;;24.65;;
21099;SDS011;10708;50.824;4.408;2023-01-24T12:21:43;33.30;;;23.58;;
21099;SDS011;10708;50.824;4.408;2023-01-24T12:26:48;37.97;;;26.57;;
21099;SDS011;10708;50.824;4.408;2023-01-24T12:31:54;44.22;;;28.58;;
21099;SDS011;10708;50.824;4.408;2023-01-24T12:37:03;43.78;;;29.52;;
21099;SDS011;10708;50.824;4.408;2023-01-24T12:42:16;40.50;;;28.75;;
21099;SDS011;10708;50.824;4.408;2023-01-24T12:47:25;38.73;;;27.17;;
21099;SDS011;10708;50.824;4.408;2023-01-24T12:52:35;37.17;;;26.40;;
21099;SDS011;10708;50.824;4.408;2023-01-24T12:57:47;35.90;;;25.50;;
21099;SDS011;10708;50.824;4.408;2023-01-24T13:02:57;35.90;;;24.60;;
21099;SDS011;10708;50.824;4.408;2023-01-24T13:08:22;37.70;;;25.30;;
21099;SDS011;10708;50.824;4.408;2023-01-24T13:13:36;39.08;;;25.60;;
21099;SDS011;10708;50.824;4.408;2023-01-24T13:18:48;37.95;;;26.33;;
21099;SDS011;10708;50.824;4.408;2023-01-24T13:24:05;39.17;;;26.60;;
21099;SDS011;10708;50.824;4.408;2023-01-24T13:29:29;35.58;;;26.00;;
21099;SDS011;10708;50.824;4.408;2023-01-24T13:34:44;37.70;;;25.92;;
21099;SDS011;10708;50.824;4.408;2023-01-24T13:39:58;36.92;;;25.90;;
21099;SDS011;10708;50.824;4.408;2023-01-24T13:50:42;37.55;;;26.52;;
21099;SDS011;10708;50.824;4.408;2023-01-24T14:01:04;43.17;;;28.65;;
21099;SDS011;10708;50.824;4.408;2023-01-24T14:06:19;42.63;;;29.77;;
21099;SDS011;10708;50.824;4.408;2023-01-24T14:11:23;43.60;;;29.92;;
21099;SDS011;10708;50.824;4.408;2023-01-24T14:22:23;41.05;;;28.73;;
21099;SDS011;10708;50.824;4.408;2023-01-24T14:27:35;40.42;;;28.33;;
21099;SDS011;10708;50.824;4.408;2023-01-24T14:32:40;41.80;;;28.42;;
21099;SDS011;10708;50.824;4.408;2023-01-24T14:37:50;45.83;;;31.17;;
21099;SDS011;10708;50.824;4.408;2023-01-24T14:42:57;44.07;;;30.40;;
21099;SDS011;10708;50.824;4.408;2023-01-24T14:48:05;41.83;;;29.07;;
21099;SDS011;10708;50.824;4.408;2023-01-24T14:58:32;42.30;;;30.67;;
21099;SDS011;10708;50.824;4.408;2023-01-24T15:03:35;43.20;;;30.17;;
21099;SDS011;10708;50.824;4.408;2023-01-24T15:08:38;40.92;;;29.77;;
21099;SDS011;10708;50.824;4.408;2023-01-24T15:13:42;43.67;;;30.40;;
21099;SDS011;10708;50.824;4.408;2023-01-24T15:18:46;42.30;;;30.50;;
21099;SDS011;10708;50.824;4.408;2023-01-24T15:23:52;45.33;;;30.17;;
21099;SDS011;10708;50.824;4.408;2023-01-24T15:28:57;43.50;;;30.43;;
21099;SDS011;10708;50.824;4.408;2023-01-24T15:34:00;43.40;;;31.50;;
21099;SDS011;10708;50.824;4.408;2023-01-24T15:39:04;42.90;;;31.27;;
21099;SDS011;10708;50.824;4.408;2023-01-24T15:44:16;43.93;;;32.37;;
21099;SDS011;10708;50.824;4.408;2023-01-24T15:54:33;46.45;;;34.17;;
21099;SDS011;10708;50.824;4.408;2023-01-24T15:59:37;47.05;;;33.92;;
21099;SDS011;10708;50.824;4.408;2023-01-24T16:04:44;43.10;;;32.30;;
21099;SDS011;10708;50.824;4.408;2023-01-24T16:09:49;43.83;;;31.80;;
21099;SDS011;10708;50.824;4.408;2023-01-24T16:14:55;43.65;;;32.00;;
21099;SDS011;10708;50.824;4.408;2023-01-24T16:19:57;43.90;;;31.00;;
21099;SDS011;10708;50.824;4.408;2023-01-24T16:25:01;40.10;;;29.73;;
21099;SDS011;10708;50.824;4.408;2023-01-24T16:30:04;41.15;;;29.80;;
21099;SDS011;10708;50.824;4.408;2023-01-24T16:35:08;42.40;;;30.80;;
21099;SDS011;10708;50.824;4.408;2023-01-24T16:40:12;41.43;;;31.17;;
21099;SDS011;10708;50.824;4.408;2023-01-24T16:45:17;37.30;;;27.25;;
21099;SDS011;10708;50.824;4.408;2023-01-24T16:50:22;36.43;;;26.20;;
21099;SDS011;10708;50.824;4.408;2023-01-24T16:55:25;36.30;;;25.30;;
21099;SDS011;10708;50.824;4.408;2023-01-24T17:00:28;37.03;;;27.20;;
21099;SDS011;10708;50.824;4.408;2023-01-24T17:05:31;38.70;;;27.23;;
21099;SDS011;10708;50.824;4.408;2023-01-24T17:10:35;35.30;;;25.57;;
21099;SDS011;10708;50.824;4.408;2023-01-24T17:15:38;38.05;;;26.63;;
21099;SDS011;10708;50.824;4.408;2023-01-24T17:20:41;35.47;;;26.27;;
21099;SDS011;10708;50.824;4.408;2023-01-24T17:25:44;39.28;;;26.52;;
21099;SDS011;10708;50.824;4.408;2023-01-24T17:30:47;36.97;;;27.55;;
21099;SDS011;10708;50.824;4.408;2023-01-24T17:35:49;38.23;;;28.00;;
21099;SDS011;10708;50.824;4.408;2023-01-24T17:40:53;37.33;;;26.77;;
21099;SDS011;10708;50.824;4.408;2023-01-24T17:45:56;35.67;;;25.90;;
21099;SDS011;10708;50.824;4.408;2023-01-24T17:51:04;36.17;;;26.55;;
21099;SDS011;10708;50.824;4.408;2023-01-24T17:56:10;34.97;;;26.38;;
21099;SDS011;10708;50.824;4.408;2023-01-24T18:01:13;37.60;;;26.90;;
21099;SDS011;10708;50.824;4.408;2023-01-24T18:06:16;36.50;;;28.77;;
21099;SDS011;10708;50.824;4.408;2023-01-24T18:11:20;42.83;;;31.77;;
21099;SDS011;10708;50.824;4.408;2023-01-24T18:16:22;41.80;;;31.37;;
21099;SDS011;10708;50.824;4.408;2023-01-24T18:21:25;41.40;;;31.05;;
21099;SDS011;10708;50.824;4.408;2023-01-24T18:26:29;41.05;;;30.65;;
21099;SDS011;10708;50.824;4.408;2023-01-24T18:31:32;41.30;;;29.60;;
21099;SDS011;10708;50.824;4.408;2023-01-24T18:36:35;41.70;;;29.43;;
21099;SDS011;10708;50.824;4.408;2023-01-24T18:41:39;40.72;;;29.75;;
21099;SDS011;10708;50.824;4.408;2023-01-24T18:46:41;43.53;;;30.77;;
21099;SDS011;10708;50.824;4.408;2023-01-24T18:51:44;43.63;;;31.45;;
21099;SDS011;10708;50.824;4.408;2023-01-24T18:56:51;42.15;;;31.00;;
21099;SDS011;10708;50.824;4.408;2023-01-24T19:01:54;42.35;;;30.98;;
21099;SDS011;10708;50.824;4.408;2023-01-24T19:06:57;43.53;;;30.33;;
21099;SDS011;10708;50.824;4.408;2023-01-24T19:12:04;43.63;;;32.03;;
21099;SDS011;10708;50.824;4.408;2023-01-24T19:17:07;43.65;;;31.95;;
21099;SDS011;10708;50.824;4.408;2023-01-24T19:22:09;43.13;;;30.83;;
21099;SDS011;10708;50.824;4.408;2023-01-24T19:27:13;43.50;;;30.13;;
21099;SDS011;10708;50.824;4.408;2023-01-24T19:32:16;42.28;;;30.08;;
21099;SDS011;10708;50.824;4.408;2023-01-24T19:37:19;47.30;;;34.63;;
21099;SDS011;10708;50.824;4.408;2023-01-24T19:42:22;45.83;;;33.30;;
21099;SDS011;10708;50.824;4.408;2023-01-24T19:47:25;47.45;;;35.30;;
21099;SDS011;10708;50.824;4.408;2023-01-24T19:52:28;52.70;;;38.27;;
21099;SDS011;10708;50.824;4.408;2023-01-24T19:57:33;54.63;;;41.57;;
21099;SDS011;10708;50.824;4.408;2023-01-24T20:02:38;55.85;;;43.92;;
21099;SDS011;10708;50.824;4.408;2023-01-24T20:07:40;54.78;;;42.55;;
21099;SDS011;10708;50.824;4.408;2023-01-24T20:12:44;59.17;;;47.60;;
21099;SDS011;10708;50.824;4.408;2023-01-24T20:17:46;57.03;;;44.93;;
21099;SDS011;10708;50.824;4.408;2023-01-24T20:22:49;54.60;;;41.95;;
21099;SDS011;10708;50.824;4.408;2023-01-24T20:27:57;52.78;;;40.05;;
21099;SDS011;10708;50.824;4.408;2023-01-24T20:32:59;55.42;;;39.78;;
21099;SDS011;10708;50.824;4.408;2023-01-24T20:38:02;54.73;;;37.63;;
21099;SDS011;10708;50.824;4.408;2023-01-24T20:43:06;49.53;;;36.25;;
21099;SDS011;10708;50.824;4.408;2023-01-24T20:48:08;51.97;;;38.22;;
21099;SDS011;10708;50.824;4.408;2023-01-24T20:53:11;52.10;;;38.73;;
21099;SDS011;10708;50.824;4.408;2023-01-24T20:58:15;52.58;;;40.97;;
21099;SDS011;10708;50.824;4.408;2023-01-24T21:03:17;57.97;;;41.95;;
21099;SDS011;10708;50.824;4.408;2023-01-24T21:08:20;46.80;;;30.38;;
21099;SDS011;10708;50.824;4.408;2023-01-24T21:13:23;56.03;;;41.35;;
21099;SDS011;10708;50.824;4.408;2023-01-24T21:18:26;54.00;;;39.40;;
21099;SDS011;10708;50.824;4.408;2023-01-24T21:23:29;52.80;;;36.28;;
21099;SDS011;10708;50.824;4.408;2023-01-24T21:28:33;52.08;;;36.53;;
21099;SDS011;10708;50.824;4.408;2023-01-24T21:33:36;53.85;;;36.00;;
21099;SDS011;10708;50.824;4.408;2023-01-24T21:38:38;54.57;;;37.73;;
21099;SDS011;10708;50.824;4.408;2023-01-24T21:43:43;56.55;;;38.83;;
21099;SDS011;10708;50.824;4.408;2023-01-24T21:48:45;56.15;;;39.03;;
21099;SDS011;10708;50.824;4.408;2023-01-24T21:54:08;51.63;;;37.17;;
21099;SDS011;10708;50.824;4.408;2023-01-24T21:59:14;54.33;;;37.87;;
21099;SDS011;10708;50.824;4.408;2023-01-24T22:04:19;53.50;;;37.42;;
21099;SDS011;10708;50.824;4.408;2023-01-24T22:09:22;53.15;;;37.33;;
21099;SDS011;10708;50.824;4.408;2023-01-24T22:14:27;48.85;;;33.95;;
21099;SDS011;10708;50.824;4.408;2023-01-24T22:19:36;51.15;;;35.40;;
21099;SDS011;10708;50.824;4.408;2023-01-24T22:24:43;56.67;;;38.10;;
21099;SDS011;10708;50.824;4.408;2023-01-24T22:29:56;55.30;;;39.75;;
21099;SDS011;10708;50.824;4.408;2023-01-24T22:34:59;55.00;;;38.25;;
21099;SDS011;10708;50.824;4.408;2023-01-24T22:40:01;55.13;;;39.60;;
21099;SDS011;10708;50.824;4.408;2023-01-24T22:45:06;54.92;;;39.95;;
21099;SDS011;10708;50.824;4.408;2023-01-24T22:50:09;54.75;;;38.40;;
21099;SDS011;10708;50.824;4.408;2023-01-24T22:55:12;56.97;;;39.55;;
21099;SDS011;10708;50.824;4.408;2023-01-24T23:00:16;54.43;;;38.97;;
21099;SDS011;10708;50.824;4.408;2023-01-24T23:05:19;55.20;;;37.72;;
21099;SDS011;10708;50.824;4.408;2023-01-24T23:10:22;58.72;;;40.88;;
21099;SDS011;10708;50.824;4.408;2023-01-24T23:15:25;59.28;;;40.55;;
21099;SDS011;10708;50.824;4.408;2023-01-24T23:20:45;56.85;;;37.40;;
21099;SDS011;10708;50.824;4.408;2023-01-24T23:26:05;55.83;;;37.58;;
21099;SDS011;10708;50.824;4.408;2023-01-24T23:31:09;59.85;;;39.95;;
21099;SDS011;10708;50.824;4.408;2023-01-24T23:36:13;54.95;;;37.47;;
21099;SDS011;10708;50.824;4.408;2023-01-24T23:41:16;57.30;;;41.50;;
21099;SDS011;10708;50.824;4.408;2023-01-24T23:46:19;58.40;;;39.03;;
21099;SDS011;10708;50.824;4.408;2023-01-24T23:51:21;56.42;;;37.75;;
21099;SDS011;10708;50.824;4.408;2023-01-24T23:56:24;59.63;;;40.23;;
